sensor_id;sensor_type;location;lat;lon;timestamp;P1;durP1;ratioP1;P2;durP2;ratioP2
17382;SDS011;8809;51.892;8.384;2022-08-01T00:02:00;10.73;;;8.13;;
17382;SDS011;8809;51.892;8.384;2022-08-01T00:04:28;11.60;;;8.88;;
17382;SDS011;8809;51.892;8.384;2022-08-01T00:06:55;9.25;;;7.70;;
17382;SDS011;8809;51.892;8.384;2022-08-01T00:09:22;9.57;;;8.15;;
17382;SDS011;8809;51.892;8.384;2022-08-01T00:11:49;15.65;;;10.35;;
17382;SDS011;8809;51.892;8.384;2022-08-01T00:14:16;10.93;;;7.90;;
17382;SDS011;8809;51.892;8.384;2022-08-01T00:16:43;11.40;;;8.57;;
17382;SDS011;8809;51.892;8.384;2022-08-01T00:19:11;11.30;;;8.68;;
17382;SDS011;8809;51.892;8.384;2022-08-01T00:21:38;9.82;;;8.02;;
17382;SDS011;8809;51.892;8.384;2022-08-01T00:24:06;9.73;;;7.93;;
17382;SDS011;8809;51.892;8.384;2022-08-01T00:26:33;11.30;;;8.55;;
17382;SDS011;8809;51.892;8.384;2022-08-01T00:29:00;11.48;;;9.70;;
17382;SDS011;8809;51.892;8.384;2022-08-01T00:31:27;9.25;;;8.25;;
17382;SDS011;8809;51.892;8.384;2022-08-01T00:33:54;8.82;;;7.45;;
17382;SDS011;8809;51.892;8.384;2022-08-01T00:36:23;10.30;;;7.70;;
17382;SDS011;8809;51.892;8.384;2022-08-01T00:38:50;10.82;;;7.78;;
17382;SDS011;8809;51.892;8.384;2022-08-01T00:41:17;10.80;;;7.80;;
17382;SDS011;8809;51.892;8.384;2022-08-01T00:43:44;9.35;;;8.23;;
17382;SDS011;8809;51.892;8.384;2022-08-01T00:46:11;13.05;;;9.10;;
17382;SDS011;8809;51.892;8.384;2022-08-01T00:48:38;10.52;;;7.65;;
17382;SDS011;8809;51.892;8.384;2022-08-01T00:51:05;7.18;;;6.47;;
17382;SDS011;8809;51.892;8.384;2022-08-01T00:53:35;10.02;;;6.80;;
17382;SDS011;8809;51.892;8.384;2022-08-01T00:56:02;9.88;;;6.10;;
17382;SDS011;8809;51.892;8.384;2022-08-01T00:58:30;10.73;;;7.22;;
17382;SDS011;8809;51.892;8.384;2022-08-01T01:00:57;8.80;;;6.35;;
17382;SDS011;8809;51.892;8.384;2022-08-01T01:03:25;9.93;;;5.90;;
17382;SDS011;8809;51.892;8.384;2022-08-01T01:06:01;5.57;;;4.75;;
17382;SDS011;8809;51.892;8.384;2022-08-01T01:08:41;6.15;;;4.80;;
17382;SDS011;8809;51.892;8.384;2022-08-01T01:11:13;5.50;;;4.90;;
17382;SDS011;8809;51.892;8.384;2022-08-01T01:13:49;6.90;;;5.00;;
17382;SDS011;8809;51.892;8.384;2022-08-01T01:16:20;5.18;;;4.40;;
17382;SDS011;8809;51.892;8.384;2022-08-01T01:18:51;5.10;;;4.15;;
17382;SDS011;8809;51.892;8.384;2022-08-01T01:24:28;5.63;;;4.60;;
17382;SDS011;8809;51.892;8.384;2022-08-01T01:27:06;5.25;;;4.70;;
17382;SDS011;8809;51.892;8.384;2022-08-01T01:29:46;4.90;;;3.97;;
17382;SDS011;8809;51.892;8.384;2022-08-01T01:32:16;5.55;;;4.82;;
17382;SDS011;8809;51.892;8.384;2022-08-01T01:34:47;4.78;;;4.05;;
17382;SDS011;8809;51.892;8.384;2022-08-01T01:37:17;5.85;;;5.13;;
17382;SDS011;8809;51.892;8.384;2022-08-01T01:39:47;7.70;;;6.07;;
17382;SDS011;8809;51.892;8.384;2022-08-01T01:42:17;8.55;;;5.72;;
17382;SDS011;8809;51.892;8.384;2022-08-01T01:44:47;7.78;;;5.95;;
17382;SDS011;8809;51.892;8.384;2022-08-01T01:47:16;8.18;;;6.68;;
17382;SDS011;8809;51.892;8.384;2022-08-01T01:49:44;7.75;;;6.43;;
17382;SDS011;8809;51.892;8.384;2022-08-01T01:52:13;9.35;;;7.35;;
17382;SDS011;8809;51.892;8.384;2022-08-01T01:54:45;10.98;;;8.15;;
17382;SDS011;8809;51.892;8.384;2022-08-01T01:57:15;9.80;;;7.90;;
17382;SDS011;8809;51.892;8.384;2022-08-01T01:59:44;8.50;;;7.32;;
17382;SDS011;8809;51.892;8.384;2022-08-01T02:02:15;9.00;;;6.90;;
17382;SDS011;8809;51.892;8.384;2022-08-01T02:04:43;7.32;;;6.28;;
17382;SDS011;8809;51.892;8.384;2022-08-01T02:07:14;7.60;;;6.07;;
17382;SDS011;8809;51.892;8.384;2022-08-01T02:09:45;7.20;;;5.43;;
17382;SDS011;8809;51.892;8.384;2022-08-01T02:12:14;7.32;;;5.75;;
17382;SDS011;8809;51.892;8.384;2022-08-01T02:14:44;6.75;;;5.53;;
17382;SDS011;8809;51.892;8.384;2022-08-01T02:17:15;7.60;;;5.88;;
17382;SDS011;8809;51.892;8.384;2022-08-01T02:19:43;8.30;;;6.50;;
17382;SDS011;8809;51.892;8.384;2022-08-01T02:22:11;5.97;;;5.05;;
17382;SDS011;8809;51.892;8.384;2022-08-01T02:24:47;6.07;;;4.60;;
17382;SDS011;8809;51.892;8.384;2022-08-01T02:27:17;7.32;;;5.05;;
17382;SDS011;8809;51.892;8.384;2022-08-01T02:29:52;6.85;;;5.88;;
17382;SDS011;8809;51.892;8.384;2022-08-01T02:32:26;6.15;;;5.13;;
17382;SDS011;8809;51.892;8.384;2022-08-01T02:34:57;7.32;;;5.10;;
17382;SDS011;8809;51.892;8.384;2022-08-01T02:37:28;4.72;;;3.95;;
17382;SDS011;8809;51.892;8.384;2022-08-01T02:39:59;4.18;;;3.40;;
17382;SDS011;8809;51.892;8.384;2022-08-01T02:42:29;4.00;;;3.60;;
17382;SDS011;8809;51.892;8.384;2022-08-01T02:44:58;5.25;;;4.15;;
17382;SDS011;8809;51.892;8.384;2022-08-01T02:47:30;5.47;;;4.47;;
17382;SDS011;8809;51.892;8.384;2022-08-01T02:49:58;6.75;;;4.25;;
17382;SDS011;8809;51.892;8.384;2022-08-01T02:52:29;5.28;;;3.35;;
17382;SDS011;8809;51.892;8.384;2022-08-01T02:54:59;4.78;;;3.63;;
17382;SDS011;8809;51.892;8.384;2022-08-01T02:57:27;4.20;;;3.45;;
17382;SDS011;8809;51.892;8.384;2022-08-01T02:59:56;4.15;;;3.42;;
17382;SDS011;8809;51.892;8.384;2022-08-01T03:02:25;7.13;;;3.40;;
17382;SDS011;8809;51.892;8.384;2022-08-01T03:04:56;3.28;;;2.92;;
17382;SDS011;8809;51.892;8.384;2022-08-01T03:07:25;2.63;;;2.38;;
17382;SDS011;8809;51.892;8.384;2022-08-01T03:09:55;3.50;;;3.00;;
17382;SDS011;8809;51.892;8.384;2022-08-01T03:12:24;3.00;;;2.67;;
17382;SDS011;8809;51.892;8.384;2022-08-01T03:14:54;3.63;;;2.78;;
17382;SDS011;8809;51.892;8.384;2022-08-01T03:17:24;3.72;;;2.47;;
17382;SDS011;8809;51.892;8.384;2022-08-01T03:19:53;3.08;;;2.47;;
17382;SDS011;8809;51.892;8.384;2022-08-01T03:22:24;3.33;;;2.35;;
17382;SDS011;8809;51.892;8.384;2022-08-01T03:24:54;3.08;;;2.58;;
17382;SDS011;8809;51.892;8.384;2022-08-01T03:27:23;2.13;;;1.92;;
17382;SDS011;8809;51.892;8.384;2022-08-01T03:29:51;2.55;;;2.35;;
17382;SDS011;8809;51.892;8.384;2022-08-01T03:32:23;3.33;;;2.75;;
17382;SDS011;8809;51.892;8.384;2022-08-01T03:34:51;2.60;;;2.30;;
17382;SDS011;8809;51.892;8.384;2022-08-01T03:37:20;2.63;;;2.22;;
17382;SDS011;8809;51.892;8.384;2022-08-01T03:39:54;2.45;;;2.25;;
17382;SDS011;8809;51.892;8.384;2022-08-01T03:42:25;3.17;;;2.55;;
17382;SDS011;8809;51.892;8.384;2022-08-01T03:44:59;2.38;;;2.17;;
17382;SDS011;8809;51.892;8.384;2022-08-01T03:47:29;3.10;;;2.38;;
17382;SDS011;8809;51.892;8.384;2022-08-01T03:49:59;3.30;;;2.70;;
17382;SDS011;8809;51.892;8.384;2022-08-01T03:52:30;3.13;;;2.30;;
17382;SDS011;8809;51.892;8.384;2022-08-01T03:55:01;3.90;;;2.40;;
17382;SDS011;8809;51.892;8.384;2022-08-01T03:57:32;2.63;;;2.17;;
17382;SDS011;8809;51.892;8.384;2022-08-01T04:00:00;4.15;;;2.95;;
17382;SDS011;8809;51.892;8.384;2022-08-01T04:02:35;3.75;;;2.78;;
17382;SDS011;8809;51.892;8.384;2022-08-01T04:05:03;2.85;;;2.47;;
17382;SDS011;8809;51.892;8.384;2022-08-01T04:07:32;3.60;;;2.83;;
17382;SDS011;8809;51.892;8.384;2022-08-01T04:10:04;4.00;;;3.05;;
17382;SDS011;8809;51.892;8.384;2022-08-01T04:12:32;4.40;;;3.35;;
17382;SDS011;8809;51.892;8.384;2022-08-01T04:15:00;3.58;;;2.95;;
17382;SDS011;8809;51.892;8.384;2022-08-01T04:17:30;3.42;;;2.60;;
17382;SDS011;8809;51.892;8.384;2022-08-01T04:19:57;5.15;;;3.25;;
17382;SDS011;8809;51.892;8.384;2022-08-01T04:22:25;3.45;;;2.97;;
17382;SDS011;8809;51.892;8.384;2022-08-01T04:24:53;3.33;;;2.20;;
17382;SDS011;8809;51.892;8.384;2022-08-01T04:27:29;4.00;;;3.15;;
17382;SDS011;8809;51.892;8.384;2022-08-01T04:29:59;3.47;;;3.13;;
17382;SDS011;8809;51.892;8.384;2022-08-01T04:32:31;4.45;;;2.80;;
17382;SDS011;8809;51.892;8.384;2022-08-01T04:35:02;3.47;;;2.63;;
17382;SDS011;8809;51.892;8.384;2022-08-01T04:37:32;2.92;;;2.53;;
17382;SDS011;8809;51.892;8.384;2022-08-01T04:40:05;3.13;;;2.83;;
17382;SDS011;8809;51.892;8.384;2022-08-01T04:42:41;3.88;;;2.80;;
17382;SDS011;8809;51.892;8.384;2022-08-01T04:45:08;3.35;;;2.67;;
17382;SDS011;8809;51.892;8.384;2022-08-01T04:47:37;3.53;;;3.22;;
17382;SDS011;8809;51.892;8.384;2022-08-01T04:50:06;4.65;;;2.80;;
17382;SDS011;8809;51.892;8.384;2022-08-01T04:52:37;6.35;;;3.90;;
17382;SDS011;8809;51.892;8.384;2022-08-01T04:55:08;6.40;;;4.28;;
17382;SDS011;8809;51.892;8.384;2022-08-01T04:57:36;5.38;;;4.22;;
17382;SDS011;8809;51.892;8.384;2022-08-01T05:00:07;4.40;;;3.25;;
17382;SDS011;8809;51.892;8.384;2022-08-01T05:02:36;4.90;;;3.55;;
17382;SDS011;8809;51.892;8.384;2022-08-01T05:05:04;4.72;;;3.60;;
17382;SDS011;8809;51.892;8.384;2022-08-01T05:07:32;3.85;;;3.03;;
17382;SDS011;8809;51.892;8.384;2022-08-01T05:10:04;3.60;;;2.80;;
17382;SDS011;8809;51.892;8.384;2022-08-01T05:12:32;3.72;;;3.20;;
17382;SDS011;8809;51.892;8.384;2022-08-01T05:14:59;6.30;;;4.63;;
17382;SDS011;8809;51.892;8.384;2022-08-01T05:17:28;5.38;;;4.18;;
17382;SDS011;8809;51.892;8.384;2022-08-01T05:19:55;7.10;;;4.38;;
17382;SDS011;8809;51.892;8.384;2022-08-01T05:22:22;6.72;;;4.30;;
17382;SDS011;8809;51.892;8.384;2022-08-01T05:24:50;4.55;;;3.45;;
17382;SDS011;8809;51.892;8.384;2022-08-01T05:27:18;3.97;;;3.25;;
17382;SDS011;8809;51.892;8.384;2022-08-01T05:29:45;3.88;;;3.05;;
17382;SDS011;8809;51.892;8.384;2022-08-01T05:32:14;4.20;;;2.80;;
17382;SDS011;8809;51.892;8.384;2022-08-01T05:34:43;4.15;;;3.22;;
17382;SDS011;8809;51.892;8.384;2022-08-01T05:37:10;5.22;;;3.75;;
17382;SDS011;8809;51.892;8.384;2022-08-01T05:39:37;4.22;;;3.17;;
17382;SDS011;8809;51.892;8.384;2022-08-01T05:42:04;4.32;;;3.25;;
17382;SDS011;8809;51.892;8.384;2022-08-01T05:44:31;3.50;;;2.75;;
17382;SDS011;8809;51.892;8.384;2022-08-01T05:46:59;6.65;;;4.68;;
17382;SDS011;8809;51.892;8.384;2022-08-01T05:49:27;5.18;;;4.20;;
17382;SDS011;8809;51.892;8.384;2022-08-01T05:51:56;5.40;;;4.10;;
17382;SDS011;8809;51.892;8.384;2022-08-01T05:54:23;6.70;;;5.10;;
17382;SDS011;8809;51.892;8.384;2022-08-01T05:56:50;6.32;;;4.97;;
17382;SDS011;8809;51.892;8.384;2022-08-01T05:59:17;10.50;;;5.97;;
17382;SDS011;8809;51.892;8.384;2022-08-01T06:01:45;6.07;;;4.32;;
17382;SDS011;8809;51.892;8.384;2022-08-01T06:04:12;6.07;;;4.45;;
17382;SDS011;8809;51.892;8.384;2022-08-01T06:06:40;7.35;;;4.80;;
17382;SDS011;8809;51.892;8.384;2022-08-01T06:09:08;6.15;;;4.63;;
17382;SDS011;8809;51.892;8.384;2022-08-01T06:11:35;5.50;;;4.18;;
17382;SDS011;8809;51.892;8.384;2022-08-01T06:14:02;9.50;;;5.13;;
17382;SDS011;8809;51.892;8.384;2022-08-01T06:16:29;4.68;;;3.88;;
17382;SDS011;8809;51.892;8.384;2022-08-01T06:18:57;5.63;;;4.45;;
17382;SDS011;8809;51.892;8.384;2022-08-01T06:21:24;5.85;;;4.45;;
17382;SDS011;8809;51.892;8.384;2022-08-01T06:23:51;5.30;;;4.20;;
17382;SDS011;8809;51.892;8.384;2022-08-01T06:26:19;4.22;;;3.70;;
17382;SDS011;8809;51.892;8.384;2022-08-01T06:28:46;4.68;;;3.28;;
17382;SDS011;8809;51.892;8.384;2022-08-01T06:31:13;3.17;;;2.67;;
17382;SDS011;8809;51.892;8.384;2022-08-01T06:33:41;5.55;;;4.15;;
17382;SDS011;8809;51.892;8.384;2022-08-01T06:36:08;7.00;;;3.78;;
17382;SDS011;8809;51.892;8.384;2022-08-01T06:38:35;5.70;;;4.20;;
17382;SDS011;8809;51.892;8.384;2022-08-01T06:41:02;6.28;;;4.40;;
17382;SDS011;8809;51.892;8.384;2022-08-01T06:43:31;6.07;;;3.95;;
17382;SDS011;8809;51.892;8.384;2022-08-01T06:45:58;4.72;;;4.22;;
17382;SDS011;8809;51.892;8.384;2022-08-01T06:48:25;4.03;;;3.63;;
17382;SDS011;8809;51.892;8.384;2022-08-01T06:50:52;4.82;;;3.65;;
17382;SDS011;8809;51.892;8.384;2022-08-01T06:53:33;5.13;;;3.80;;
17382;SDS011;8809;51.892;8.384;2022-08-01T06:56:00;4.13;;;3.53;;
17382;SDS011;8809;51.892;8.384;2022-08-01T06:58:27;4.60;;;4.10;;
17382;SDS011;8809;51.892;8.384;2022-08-01T07:00:56;4.88;;;4.20;;
17382;SDS011;8809;51.892;8.384;2022-08-01T07:03:23;5.80;;;4.65;;
17382;SDS011;8809;51.892;8.384;2022-08-01T07:05:50;5.18;;;4.68;;
17382;SDS011;8809;51.892;8.384;2022-08-01T07:08:18;5.13;;;4.40;;
17382;SDS011;8809;51.892;8.384;2022-08-01T07:10:45;5.82;;;4.18;;
17382;SDS011;8809;51.892;8.384;2022-08-01T07:13:12;5.63;;;4.88;;
17382;SDS011;8809;51.892;8.384;2022-08-01T07:15:41;5.68;;;4.68;;
17382;SDS011;8809;51.892;8.384;2022-08-01T07:18:10;5.05;;;4.53;;
17382;SDS011;8809;51.892;8.384;2022-08-01T07:20:37;4.32;;;3.67;;
17382;SDS011;8809;51.892;8.384;2022-08-01T07:23:04;3.95;;;3.55;;
17382;SDS011;8809;51.892;8.384;2022-08-01T07:25:31;3.72;;;3.10;;
17382;SDS011;8809;51.892;8.384;2022-08-01T07:27:58;3.55;;;3.25;;
17382;SDS011;8809;51.892;8.384;2022-08-01T07:30:26;4.13;;;3.55;;
17382;SDS011;8809;51.892;8.384;2022-08-01T07:32:53;3.90;;;3.10;;
17382;SDS011;8809;51.892;8.384;2022-08-01T07:35:21;5.97;;;3.78;;
17382;SDS011;8809;51.892;8.384;2022-08-01T07:37:48;3.08;;;2.67;;
17382;SDS011;8809;51.892;8.384;2022-08-01T07:40:16;3.97;;;3.17;;
17382;SDS011;8809;51.892;8.384;2022-08-01T07:42:44;3.35;;;2.92;;
17382;SDS011;8809;51.892;8.384;2022-08-01T07:45:11;2.58;;;2.38;;
17382;SDS011;8809;51.892;8.384;2022-08-01T07:47:38;3.55;;;2.92;;
17382;SDS011;8809;51.892;8.384;2022-08-01T07:50:06;2.80;;;2.47;;
17382;SDS011;8809;51.892;8.384;2022-08-01T07:52:38;3.83;;;3.42;;
17382;SDS011;8809;51.892;8.384;2022-08-01T07:55:06;2.80;;;2.60;;
17382;SDS011;8809;51.892;8.384;2022-08-01T07:57:34;2.63;;;2.42;;
17382;SDS011;8809;51.892;8.384;2022-08-01T08:00:03;2.67;;;2.45;;
17382;SDS011;8809;51.892;8.384;2022-08-01T08:02:32;6.65;;;5.20;;
17382;SDS011;8809;51.892;8.384;2022-08-01T08:04:59;4.70;;;4.20;;
17382;SDS011;8809;51.892;8.384;2022-08-01T08:07:26;4.70;;;4.20;;
17382;SDS011;8809;51.892;8.384;2022-08-01T08:09:55;4.20;;;3.75;;
17382;SDS011;8809;51.892;8.384;2022-08-01T08:12:22;3.70;;;3.40;;
17382;SDS011;8809;51.892;8.384;2022-08-01T08:14:49;3.92;;;3.33;;
17382;SDS011;8809;51.892;8.384;2022-08-01T08:17:16;2.75;;;2.55;;
17382;SDS011;8809;51.892;8.384;2022-08-01T08:19:43;3.15;;;2.70;;
17382;SDS011;8809;51.892;8.384;2022-08-01T08:22:11;3.00;;;2.70;;
17382;SDS011;8809;51.892;8.384;2022-08-01T08:24:38;2.85;;;2.55;;
17382;SDS011;8809;51.892;8.384;2022-08-01T08:27:06;3.20;;;2.90;;
17382;SDS011;8809;51.892;8.384;2022-08-01T08:29:33;2.97;;;2.20;;
17382;SDS011;8809;51.892;8.384;2022-08-01T08:32:00;2.10;;;1.90;;
17382;SDS011;8809;51.892;8.384;2022-08-01T08:34:28;2.20;;;2.00;;
17382;SDS011;8809;51.892;8.384;2022-08-01T08:36:56;2.22;;;1.83;;
17382;SDS011;8809;51.892;8.384;2022-08-01T08:39:24;1.48;;;1.35;;
17382;SDS011;8809;51.892;8.384;2022-08-01T08:41:52;1.48;;;1.35;;
17382;SDS011;8809;51.892;8.384;2022-08-01T08:44:20;1.52;;;1.42;;
17382;SDS011;8809;51.892;8.384;2022-08-01T08:46:48;1.17;;;1.08;;
17382;SDS011;8809;51.892;8.384;2022-08-01T08:49:17;1.35;;;1.25;;
17382;SDS011;8809;51.892;8.384;2022-08-01T08:51:47;1.20;;;1.10;;
17382;SDS011;8809;51.892;8.384;2022-08-01T08:54:15;1.38;;;1.27;;
17382;SDS011;8809;51.892;8.384;2022-08-01T08:56:44;1.13;;;1.02;;
17382;SDS011;8809;51.892;8.384;2022-08-01T08:59:13;1.27;;;0.82;;
17382;SDS011;8809;51.892;8.384;2022-08-01T09:01:42;0.93;;;0.93;;
17382;SDS011;8809;51.892;8.384;2022-08-01T09:04:10;1.23;;;1.13;;
17382;SDS011;8809;51.892;8.384;2022-08-01T09:06:38;0.98;;;0.93;;
17382;SDS011;8809;51.892;8.384;2022-08-01T09:09:06;0.80;;;0.80;;
17382;SDS011;8809;51.892;8.384;2022-08-01T09:11:35;1.00;;;1.00;;
17382;SDS011;8809;51.892;8.384;2022-08-01T09:14:03;0.90;;;0.90;;
17382;SDS011;8809;51.892;8.384;2022-08-01T09:16:32;1.00;;;0.95;;
17382;SDS011;8809;51.892;8.384;2022-08-01T09:19:12;0.90;;;0.90;;
17382;SDS011;8809;51.892;8.384;2022-08-01T09:21:54;0.77;;;0.77;;
17382;SDS011;8809;51.892;8.384;2022-08-01T09:24:23;0.88;;;0.88;;
17382;SDS011;8809;51.892;8.384;2022-08-01T09:26:51;0.85;;;0.85;;
17382;SDS011;8809;51.892;8.384;2022-08-01T09:29:26;0.80;;;0.80;;
17382;SDS011;8809;51.892;8.384;2022-08-01T09:31:54;0.93;;;0.90;;
17382;SDS011;8809;51.892;8.384;2022-08-01T09:34:26;1.75;;;1.65;;
17382;SDS011;8809;51.892;8.384;2022-08-01T09:36:56;1.20;;;1.10;;
17382;SDS011;8809;51.892;8.384;2022-08-01T09:39:24;1.58;;;1.48;;
17382;SDS011;8809;51.892;8.384;2022-08-01T09:41:53;1.50;;;1.40;;
17382;SDS011;8809;51.892;8.384;2022-08-01T09:44:36;1.55;;;1.45;;
17382;SDS011;8809;51.892;8.384;2022-08-01T09:47:05;1.67;;;1.33;;
17382;SDS011;8809;51.892;8.384;2022-08-01T09:49:34;1.35;;;1.25;;
17382;SDS011;8809;51.892;8.384;2022-08-01T09:52:13;2.10;;;1.70;;
17382;SDS011;8809;51.892;8.384;2022-08-01T09:54:41;1.50;;;1.40;;
17382;SDS011;8809;51.892;8.384;2022-08-01T09:57:10;2.50;;;1.70;;
17382;SDS011;8809;51.892;8.384;2022-08-01T09:59:40;2.55;;;2.20;;
17382;SDS011;8809;51.892;8.384;2022-08-01T10:02:10;2.13;;;1.80;;
17382;SDS011;8809;51.892;8.384;2022-08-01T10:04:49;2.13;;;1.92;;
17382;SDS011;8809;51.892;8.384;2022-08-01T10:07:18;2.60;;;2.40;;
17382;SDS011;8809;51.892;8.384;2022-08-01T10:09:46;2.60;;;2.40;;
17382;SDS011;8809;51.892;8.384;2022-08-01T10:12:14;1.90;;;1.80;;
17382;SDS011;8809;51.892;8.384;2022-08-01T10:14:42;2.13;;;1.80;;
17382;SDS011;8809;51.892;8.384;2022-08-01T10:17:12;1.60;;;1.50;;
17382;SDS011;8809;51.892;8.384;2022-08-01T10:19:41;1.60;;;1.50;;
17382;SDS011;8809;51.892;8.384;2022-08-01T10:22:12;1.70;;;1.60;;
17382;SDS011;8809;51.892;8.384;2022-08-01T10:24:42;1.73;;;1.48;;
17382;SDS011;8809;51.892;8.384;2022-08-01T10:27:11;3.50;;;3.20;;
17382;SDS011;8809;51.892;8.384;2022-08-01T10:29:42;3.25;;;2.60;;
17382;SDS011;8809;51.892;8.384;2022-08-01T10:32:16;2.22;;;2.03;;
17382;SDS011;8809;51.892;8.384;2022-08-01T10:34:44;2.70;;;2.50;;
17382;SDS011;8809;51.892;8.384;2022-08-01T10:37:13;3.17;;;2.90;;
17382;SDS011;8809;51.892;8.384;2022-08-01T10:39:42;3.08;;;2.83;;
17382;SDS011;8809;51.892;8.384;2022-08-01T10:42:10;3.38;;;2.80;;
17382;SDS011;8809;51.892;8.384;2022-08-01T10:44:38;2.55;;;2.35;;
17382;SDS011;8809;51.892;8.384;2022-08-01T10:47:07;2.70;;;1.90;;
17382;SDS011;8809;51.892;8.384;2022-08-01T10:49:39;2.60;;;2.40;;
17382;SDS011;8809;51.892;8.384;2022-08-01T10:52:16;3.58;;;2.30;;
17382;SDS011;8809;51.892;8.384;2022-08-01T10:54:44;2.38;;;2.17;;
17382;SDS011;8809;51.892;8.384;2022-08-01T10:57:11;2.08;;;1.90;;
17382;SDS011;8809;51.892;8.384;2022-08-01T10:59:47;2.13;;;1.92;;
17382;SDS011;8809;51.892;8.384;2022-08-01T11:02:25;2.55;;;2.35;;
17382;SDS011;8809;51.892;8.384;2022-08-01T11:04:55;2.75;;;2.55;;
17382;SDS011;8809;51.892;8.384;2022-08-01T11:07:38;2.60;;;2.40;;
17382;SDS011;8809;51.892;8.384;2022-08-01T11:10:11;2.10;;;1.90;;
17382;SDS011;8809;51.892;8.384;2022-08-01T11:12:48;2.17;;;1.98;;
17382;SDS011;8809;51.892;8.384;2022-08-01T11:15:16;2.92;;;2.60;;
17382;SDS011;8809;51.892;8.384;2022-08-01T11:17:54;3.15;;;2.85;;
17382;SDS011;8809;51.892;8.384;2022-08-01T11:20:22;2.80;;;2.60;;
17382;SDS011;8809;51.892;8.384;2022-08-01T11:26:13;3.80;;;3.05;;
17382;SDS011;8809;51.892;8.384;2022-08-01T11:28:42;2.85;;;2.65;;
17382;SDS011;8809;51.892;8.384;2022-08-01T11:31:30;3.25;;;2.95;;
17382;SDS011;8809;51.892;8.384;2022-08-01T11:33:59;3.70;;;3.10;;
17382;SDS011;8809;51.892;8.384;2022-08-01T11:36:26;3.22;;;2.92;;
17382;SDS011;8809;51.892;8.384;2022-08-01T11:41:55;2.40;;;2.20;;
17382;SDS011;8809;51.892;8.384;2022-08-01T11:44:49;3.22;;;2.30;;
17382;SDS011;8809;51.892;8.384;2022-08-01T11:47:17;3.05;;;2.28;;
17382;SDS011;8809;51.892;8.384;2022-08-01T11:49:45;2.60;;;2.40;;
17382;SDS011;8809;51.892;8.384;2022-08-01T11:52:16;3.45;;;3.15;;
17382;SDS011;8809;51.892;8.384;2022-08-01T11:54:47;3.00;;;2.70;;
17382;SDS011;8809;51.892;8.384;2022-08-01T11:57:17;2.92;;;2.72;;
17382;SDS011;8809;51.892;8.384;2022-08-01T11:59:47;3.00;;;2.80;;
17382;SDS011;8809;51.892;8.384;2022-08-01T12:02:16;3.53;;;3.22;;
17382;SDS011;8809;51.892;8.384;2022-08-01T12:04:46;4.57;;;3.65;;
17382;SDS011;8809;51.892;8.384;2022-08-01T12:07:15;4.18;;;2.90;;
17382;SDS011;8809;51.892;8.384;2022-08-01T12:09:43;3.45;;;3.15;;
17382;SDS011;8809;51.892;8.384;2022-08-01T12:12:15;3.00;;;2.80;;
17382;SDS011;8809;51.892;8.384;2022-08-01T12:14:44;3.30;;;3.00;;
17382;SDS011;8809;51.892;8.384;2022-08-01T12:17:20;2.60;;;2.40;;
17382;SDS011;8809;51.892;8.384;2022-08-01T12:19:53;2.85;;;2.55;;
17382;SDS011;8809;51.892;8.384;2022-08-01T12:22:22;2.22;;;2.08;;
17382;SDS011;8809;51.892;8.384;2022-08-01T12:24:50;3.00;;;2.45;;
17382;SDS011;8809;51.892;8.384;2022-08-01T12:27:25;2.97;;;2.78;;
17382;SDS011;8809;51.892;8.384;2022-08-01T12:29:54;2.50;;;2.30;;
17382;SDS011;8809;51.892;8.384;2022-08-01T12:32:22;2.70;;;2.47;;
17382;SDS011;8809;51.892;8.384;2022-08-01T12:34:52;2.50;;;2.30;;
17382;SDS011;8809;51.892;8.384;2022-08-01T12:37:21;2.83;;;2.47;;
17382;SDS011;8809;51.892;8.384;2022-08-01T12:39:48;2.75;;;2.33;;
17382;SDS011;8809;51.892;8.384;2022-08-01T12:42:15;2.38;;;2.17;;
17382;SDS011;8809;51.892;8.384;2022-08-01T12:44:45;2.60;;;2.40;;
17382;SDS011;8809;51.892;8.384;2022-08-01T12:47:16;2.70;;;2.28;;
17382;SDS011;8809;51.892;8.384;2022-08-01T12:49:46;2.22;;;2.00;;
17382;SDS011;8809;51.892;8.384;2022-08-01T12:52:14;2.83;;;2.63;;
17382;SDS011;8809;51.892;8.384;2022-08-01T12:55:04;2.30;;;2.10;;
17382;SDS011;8809;51.892;8.384;2022-08-01T12:57:36;2.00;;;1.90;;
17382;SDS011;8809;51.892;8.384;2022-08-01T13:00:12;2.85;;;2.00;;
17382;SDS011;8809;51.892;8.384;2022-08-01T13:02:42;2.22;;;2.03;;
17382;SDS011;8809;51.892;8.384;2022-08-01T13:05:10;2.28;;;1.60;;
17382;SDS011;8809;51.892;8.384;2022-08-01T13:07:40;1.98;;;1.77;;
17382;SDS011;8809;51.892;8.384;2022-08-01T13:10:09;1.60;;;1.50;;
17382;SDS011;8809;51.892;8.384;2022-08-01T13:12:37;1.50;;;1.40;;
17382;SDS011;8809;51.892;8.384;2022-08-01T13:15:17;1.70;;;1.45;;
17382;SDS011;8809;51.892;8.384;2022-08-01T13:17:50;2.00;;;1.63;;
17382;SDS011;8809;51.892;8.384;2022-08-01T13:20:21;2.50;;;1.88;;
17382;SDS011;8809;51.892;8.384;2022-08-01T13:22:53;3.17;;;2.58;;
17382;SDS011;8809;51.892;8.384;2022-08-01T13:25:20;1.95;;;1.75;;
17382;SDS011;8809;51.892;8.384;2022-08-01T13:27:47;2.30;;;2.10;;
17382;SDS011;8809;51.892;8.384;2022-08-01T13:30:15;2.58;;;2.38;;
17382;SDS011;8809;51.892;8.384;2022-08-01T13:32:44;2.00;;;1.90;;
17382;SDS011;8809;51.892;8.384;2022-08-01T13:35:24;2.03;;;1.83;;
17382;SDS011;8809;51.892;8.384;2022-08-01T13:37:51;1.73;;;1.63;;
17382;SDS011;8809;51.892;8.384;2022-08-01T13:40:23;1.52;;;1.42;;
17382;SDS011;8809;51.892;8.384;2022-08-01T13:42:51;1.70;;;1.60;;
17382;SDS011;8809;51.892;8.384;2022-08-01T13:45:19;2.00;;;1.80;;
17382;SDS011;8809;51.892;8.384;2022-08-01T13:47:48;1.73;;;1.60;;
17382;SDS011;8809;51.892;8.384;2022-08-01T13:50:15;1.70;;;1.60;;
17382;SDS011;8809;51.892;8.384;2022-08-01T13:52:42;3.20;;;2.90;;
17382;SDS011;8809;51.892;8.384;2022-08-01T13:55:09;3.35;;;3.05;;
17382;SDS011;8809;51.892;8.384;2022-08-01T13:57:37;2.65;;;2.28;;
17382;SDS011;8809;51.892;8.384;2022-08-01T14:00:04;2.05;;;1.95;;
17382;SDS011;8809;51.892;8.384;2022-08-01T14:02:35;2.17;;;1.98;;
17382;SDS011;8809;51.892;8.384;2022-08-01T14:05:04;1.90;;;1.70;;
17382;SDS011;8809;51.892;8.384;2022-08-01T14:07:32;1.77;;;1.67;;
17382;SDS011;8809;51.892;8.384;2022-08-01T14:09:59;1.85;;;1.65;;
17382;SDS011;8809;51.892;8.384;2022-08-01T14:12:26;1.50;;;1.40;;
17382;SDS011;8809;51.892;8.384;2022-08-01T14:14:53;1.60;;;1.50;;
17382;SDS011;8809;51.892;8.384;2022-08-01T14:17:20;1.48;;;1.38;;
17382;SDS011;8809;51.892;8.384;2022-08-01T14:19:47;1.52;;;1.42;;
17382;SDS011;8809;51.892;8.384;2022-08-01T14:22:16;1.80;;;1.60;;
17382;SDS011;8809;51.892;8.384;2022-08-01T14:24:42;1.50;;;1.40;;
17382;SDS011;8809;51.892;8.384;2022-08-01T14:27:09;1.63;;;1.52;;
17382;SDS011;8809;51.892;8.384;2022-08-01T14:29:37;1.60;;;1.50;;
17382;SDS011;8809;51.892;8.384;2022-08-01T14:32:04;1.52;;;1.38;;
17382;SDS011;8809;51.892;8.384;2022-08-01T14:34:31;1.73;;;1.63;;
17382;SDS011;8809;51.892;8.384;2022-08-01T14:36:58;1.75;;;1.60;;
17382;SDS011;8809;51.892;8.384;2022-08-01T14:39:26;2.10;;;1.90;;
17382;SDS011;8809;51.892;8.384;2022-08-01T14:41:53;2.65;;;2.45;;
17382;SDS011;8809;51.892;8.384;2022-08-01T14:44:21;2.22;;;1.90;;
17382;SDS011;8809;51.892;8.384;2022-08-01T14:46:48;2.05;;;1.85;;
17382;SDS011;8809;51.892;8.384;2022-08-01T14:49:15;2.15;;;1.95;;
17382;SDS011;8809;51.892;8.384;2022-08-01T14:51:42;2.33;;;2.10;;
17382;SDS011;8809;51.892;8.384;2022-08-01T14:54:09;1.80;;;1.70;;
17382;SDS011;8809;51.892;8.384;2022-08-01T14:56:37;2.10;;;1.88;;
17382;SDS011;8809;51.892;8.384;2022-08-01T14:59:04;1.60;;;1.50;;
17382;SDS011;8809;51.892;8.384;2022-08-01T15:01:31;1.77;;;1.67;;
17382;SDS011;8809;51.892;8.384;2022-08-01T15:03:58;2.08;;;1.50;;
17382;SDS011;8809;51.892;8.384;2022-08-01T15:06:25;2.00;;;1.83;;
17382;SDS011;8809;51.892;8.384;2022-08-01T15:08:53;1.80;;;1.70;;
17382;SDS011;8809;51.892;8.384;2022-08-01T15:11:20;2.55;;;2.28;;
17382;SDS011;8809;51.892;8.384;2022-08-01T15:13:48;2.30;;;2.10;;
17382;SDS011;8809;51.892;8.384;2022-08-01T15:16:36;2.10;;;1.90;;
17382;SDS011;8809;51.892;8.384;2022-08-01T15:19:03;2.25;;;2.00;;
17382;SDS011;8809;51.892;8.384;2022-08-01T15:21:30;2.38;;;2.15;;
17382;SDS011;8809;51.892;8.384;2022-08-01T15:23:58;2.95;;;2.20;;